Time;durP1;ratioP1;P1;durP2;ratioP2;P2;SDS_P1;SDS_P2;PMS_P1;PMS_P2;Temp;Humidity;BMP_temperature;BMP_pressure;BME280_temperature;BME280_humidity;BME280_pressure;Samples;Min_cycle;Max_cycle;Signal;HPM_P1;HPM_P2
2023/08/01 00:00:53;;;;;;;3.53;1.00;;;18.60;99.90;;;18.02;100.00;100433.63;4167777;28;20028;-79
2023/08/01 00:02:54;;;;;;;4.60;1.00;;;18.60;99.90;;;17.97;100.00;100436.13;4164198;28;20033;-79
2023/08/01 00:04:55;;;;;;;3.83;1.25;;;18.60;99.90;;;18.00;100.00;100438.38;4164655;28;20049;-79
2023/08/01 00:06:56;;;;;;;2.92;0.70;;;18.60;99.90;;;18.01;100.00;100436.53;4163689;28;20460;-79
2023/08/01 00:08:57;;;;;;;5.30;1.50;;;18.60;99.90;;;18.01;100.00;100436.53;4165555;28;20032;-79
2023/08/01 00:10:58;;;;;;;9.48;1.20;;;18.60;99.90;;;18.02;100.00;100443.50;4166742;28;20028;-79
2023/08/01 00:12:59;;;;;;;4.57;1.10;;;18.60;99.90;;;18.03;100.00;100442.47;4167273;28;20033;-79
2023/08/01 00:15:00;;;;;;;2.65;0.75;;;18.60;99.90;;;17.95;100.00;100442.72;4181258;28;20507;-79
2023/08/01 00:17:00;;;;;;;2.03;0.90;;;18.60;99.90;;;17.96;100.00;100433.66;4164493;28;20033;-79
2023/08/01 00:19:01;;;;;;;4.07;1.42;;;18.60;99.90;;;17.95;100.00;100416.81;4182855;28;20014;-79
2023/08/01 00:21:05;;;;;;;8.55;2.00;;;18.50;99.90;;;18.00;100.00;100430.38;4183220;28;20028;-79
2023/08/01 00:23:06;;;;;;;2.55;0.93;;;18.60;99.90;;;17.97;100.00;100422.78;4165583;28;20022;-79
2023/08/01 00:25:07;;;;;;;4.10;0.88;;;18.60;99.90;;;18.00;100.00;100426.88;4184470;28;20025;-80
2023/08/01 00:27:10;;;;;;;2.25;1.15;;;18.60;99.90;;;17.99;100.00;100418.03;4163191;28;20025;-79
2023/08/01 00:29:11;;;;;;;2.65;1.20;;;18.50;99.90;;;18.01;100.00;100409.84;4181321;28;20045;-80
2023/08/01 00:31:12;;;;;;;2.20;1.10;;;18.60;99.90;;;17.97;100.00;100413.94;4179843;28;20539;-80
2023/08/01 00:33:13;;;;;;;4.43;1.20;;;18.60;99.90;;;17.94;100.00;100415.19;4183449;28;20643;-80
2023/08/01 00:35:14;;;;;;;3.90;1.30;;;18.60;99.90;;;17.91;100.00;100418.28;4183589;28;20025;-80
2023/08/01 00:37:14;;;;;;;3.10;1.20;;;18.60;99.90;;;17.92;100.00;100417.25;4184461;28;20028;-79
2023/08/01 00:39:15;;;;;;;3.85;1.70;;;18.50;99.90;;;17.93;100.00;100423.41;4178224;28;20029;-79
2023/08/01 00:41:16;;;;;;;3.03;1.20;;;18.50;99.90;;;17.94;100.00;100422.38;4162874;28;20029;-79
2023/08/01 00:43:17;;;;;;;4.80;1.25;;;18.50;99.90;;;17.90;100.00;100416.66;4182456;28;20024;-79
2023/08/01 00:45:19;;;;;;;4.55;1.50;;;18.50;99.90;;;17.93;100.00;100418.88;4163472;28;20045;-79
2023/08/01 00:47:20;;;;;;;7.25;1.50;;;18.50;99.90;;;17.96;100.00;100428.31;4164869;28;20077;-79
2023/08/01 00:49:20;;;;;;;3.85;1.00;;;18.50;99.90;;;17.93;100.00;100428.75;4184724;28;20100;-79
2023/08/01 00:51:21;;;;;;;4.40;1.45;;;18.50;99.90;;;17.94;100.00;100441.88;4163141;28;20535;-79
2023/08/01 00:53:23;;;;;;;5.07;1.00;;;18.50;99.90;;;17.90;100.00;100439.84;4147373;28;20022;-79
2023/08/01 00:55:25;;;;;;;1.40;0.90;;;18.50;99.90;;;17.88;100.00;100441.91;4178701;28;20074;-79
2023/08/01 00:57:26;;;;;;;1.88;0.88;;;18.50;99.90;;;17.87;100.00;100448.25;4182734;28;20013;-79
2023/08/01 00:59:27;;;;;;;4.60;1.00;;;18.40;99.90;;;17.86;100.00;100450.09;4183861;28;20499;-80
2023/08/01 01:01:28;;;;;;;5.80;1.33;;;18.40;99.90;;;17.83;100.00;100449.72;4184216;28;20032;-79
2023/08/01 01:03:29;;;;;;;3.90;1.33;;;18.40;99.90;;;17.81;100.00;100460.59;4178900;28;20473;-79
2023/08/01 01:05:38;;;;;;;3.95;1.00;;;18.40;99.90;;;17.75;100.00;100447.28;4161986;28;20156;-79
2023/08/01 01:07:40;;;;;;;5.35;0.95;;;18.40;99.90;;;17.72;100.00;100447.69;4164597;28;20038;-79
2023/08/01 01:09:42;;;;;;;3.15;0.88;;;18.30;99.90;;;17.73;100.00;100439.50;4182582;28;20079;-79
2023/08/01 01:11:44;;;;;;;2.90;0.82;;;18.30;99.90;;;17.69;100.00;100439.09;4181541;28;20503;-79
2023/08/01 01:13:45;;;;;;;3.72;1.05;;;18.30;99.90;;;17.66;100.00;100439.50;4166527;28;20025;-79
2023/08/01 01:15:45;;;;;;;6.32;1.00;;;18.30;99.90;;;17.65;100.00;100448.53;4167043;28;20021;-79
2023/08/01 01:17:46;;;;;;;3.08;0.80;;;18.30;99.90;;;17.64;100.00;100440.75;4181181;28;20017;-79
2023/08/01 01:19:47;;;;;;;1.40;0.70;;;18.20;99.90;;;17.60;100.00;100436.84;4180237;28;20028;-79
2023/08/01 01:21:49;;;;;;;1.70;0.82;;;18.20;99.90;;;17.54;100.00;100430.50;4186008;28;20021;-80
2023/08/01 01:23:52;;;;;;;5.43;1.00;;;18.10;99.90;;;17.52;100.00;100434.38;4169053;28;20026;-79
2023/08/01 01:25:54;;;;;;;4.35;0.93;;;18.10;99.90;;;17.51;100.00;100446.88;4169739;28;20099;-79
2023/08/01 01:27:56;;;;;;;2.20;0.65;;;18.10;99.90;;;17.51;100.00;100446.88;4167940;28;20025;-79
2023/08/01 01:29:58;;;;;;;5.35;1.50;;;18.10;99.90;;;17.50;100.00;100450.56;4165843;28;20053;-80
2023/08/01 01:32:01;;;;;;;2.30;0.80;;;18.10;99.90;;;17.51;100.00;100456.72;4167589;28;20397;-80
2023/08/01 01:34:02;;;;;;;2.20;0.80;;;18.10;99.90;;;17.52;100.00;100459.22;4168000;28;20045;-79
2023/08/01 01:36:04;;;;;;;2.80;1.40;;;18.10;99.90;;;17.51;100.00;100454.06;4167110;28;20504;-80
2023/08/01 01:38:05;;;;;;;1.80;0.80;;;18.10;99.90;;;17.52;100.00;100458.38;4187167;28;20021;-79
2023/08/01 01:40:07;;;;;;;2.03;0.70;;;18.10;99.90;;;17.54;100.00;100461.66;4165918;28;20509;-79
2023/08/01 01:42:08;;;;;;;4.70;0.82;;;18.10;99.90;;;17.60;100.00;100468.84;4166130;28;20069;-79
2023/08/01 01:44:09;;;;;;;2.08;0.70;;;18.20;99.90;;;17.53;100.00;100462.69;4182129;28;20511;-79
2023/08/01 01:46:10;;;;;;;3.28;0.90;;;18.20;99.90;;;17.53;100.00;100465.38;4185594;28;20032;-79
2023/08/01 01:48:10;;;;;;;1.67;0.50;;;18.10;99.90;;;17.53;100.00;100471.50;4186363;28;20100;-79
2023/08/01 01:50:11;;;;;;;2.80;0.55;;;18.10;99.90;;;17.49;100.00;100472.13;4187537;28;20025;-80
2023/08/01 01:52:12;;;;;;;4.53;0.73;;;18.10;99.90;;;17.39;100.00;100458.38;4185618;28;20021;-80
2023/08/01 01:54:13;;;;;;;2.42;0.55;;;18.10;99.90;;;17.33;100.00;100470.72;4169684;28;20014;-80
2023/08/01 01:56:14;;;;;;;1.10;0.40;;;18.00;99.90;;;17.25;100.00;100462.94;4166092;28;20405;-79
2023/08/01 01:58:15;;;;;;;1.13;0.70;;;18.00;99.90;;;17.29;100.00;100471.34;4184800;28;20027;-79
2023/08/01 02:00:16;;;;;;;1.55;0.32;;;17.90;99.90;;;17.26;100.00;100475.25;4165812;28;20021;-80
2023/08/01 02:02:17;;;;;;;2.22;0.40;;;17.90;99.90;;;17.19;100.00;100474.41;4168502;28;20048;-80
2023/08/01 02:04:18;;;;;;;0.88;0.30;;;17.80;99.90;;;17.14;100.00;100474.22;4186546;28;20028;-79
2023/08/01 02:06:19;;;;;;;0.52;0.30;;;17.80;99.90;;;17.09;100.00;100469.47;4187065;28;20017;-79
2023/08/01 02:08:20;;;;;;;1.17;0.43;;;17.70;99.90;;;17.03;100.00;100474.81;4163279;28;20106;-80
2023/08/01 02:10:20;;;;;;;1.08;0.57;;;17.70;99.90;;;17.02;100.00;100478.50;4164728;28;20034;-79
2023/08/01 02:12:22;;;;;;;1.13;0.30;;;17.60;99.90;;;16.96;100.00;100485.47;4184248;28;20029;-80
2023/08/01 02:14:22;;;;;;;3.67;0.30;;;17.60;99.90;;;16.91;100.00;100481.75;4185000;28;20017;-80
2023/08/01 02:16:23;;;;;;;1.98;0.63;;;17.50;99.90;;;16.85;100.00;100479.91;4166234;28;20021;-80
2023/08/01 02:18:24;;;;;;;1.55;0.30;;;17.50;99.90;;;16.83;100.00;100489.97;4186301;28;20419;-80
2023/08/01 02:20:26;;;;;;;2.50;0.40;;;17.50;99.90;;;16.82;100.00;100482.97;4169237;28;20021;-80
2023/08/01 02:22:27;;;;;;;1.50;0.30;;;17.40;99.90;;;16.87;100.00;100496.53;4161314;28;20055;-80
2023/08/01 02:24:28;;;;;;;2.22;0.50;;;17.50;99.90;;;16.86;100.00;100494.88;4163622;28;20444;-80
2023/08/01 02:26:29;;;;;;;1.15;0.40;;;17.50;99.90;;;16.82;100.00;100493.63;4183103;28;20037;-80
2023/08/01 02:28:30;;;;;;;3.03;0.40;;;17.40;99.90;;;16.83;100.00;100488.13;4166902;28;20057;-80
2023/08/01 02:30:31;;;;;;;2.30;0.50;;;17.40;99.90;;;16.83;100.00;100493.44;4167950;28;20504;-80
2023/08/01 02:32:32;;;;;;;2.88;0.40;;;17.50;99.90;;;16.82;100.00;100496.28;4185302;28;20055;-80
2023/08/01 02:34:32;;;;;;;2.30;0.50;;;17.40;99.90;;;16.78;100.00;100498.56;4165410;28;20045;-80
2023/08/01 02:36:33;;;;;;;3.83;0.65;;;17.40;99.90;;;16.72;100.00;100493.22;4165565;28;20056;-79
2023/08/01 02:38:34;;;;;;;0.60;0.30;;;17.30;99.90;;;16.61;100.00;100491.94;4183908;28;20020;-79
2023/08/01 02:40:35;;;;;;;8.55;0.55;;;17.30;99.90;;;16.57;100.00;100496.06;4165622;28;20040;-79
2023/08/01 02:42:36;;;;;;;2.03;0.90;;;17.20;99.90;;;16.52;100.00;100498.44;4184518;28;20025;-79
2023/08/01 02:44:37;;;;;;;0.85;0.30;;;17.10;99.90;;;16.47;100.00;100512.38;4168287;28;20056;-79
2023/08/01 02:46:37;;;;;;;1.98;0.55;;;17.10;99.90;;;16.44;100.00;100511.94;4168616;28;20029;-79
2023/08/01 02:48:38;;;;;;;1.67;0.40;;;17.10;99.90;;;16.39;100.00;100515.22;4162449;28;20408;-80
2023/08/01 02:50:40;;;;;;;6.60;1.25;;;17.00;99.90;;;16.36;100.00;100512.97;4181281;28;20037;-79
2023/08/01 02:52:40;;;;;;;3.38;0.90;;;17.00;99.90;;;16.30;100.00;100516.41;4184240;28;20025;-79
2023/08/01 02:54:41;;;;;;;3.30;1.15;;;16.90;99.90;;;16.26;100.00;100509.84;4185029;28;20013;-79
2023/08/01 02:56:42;;;;;;;2.88;1.42;;;16.90;99.90;;;16.24;100.00;100522.53;4185121;28;20024;-79
2023/08/01 02:58:43;;;;;;;2.53;1.10;;;16.90;99.90;;;16.13;100.00;100532.91;4179928;28;20026;-79
2023/08/01 03:00:44;;;;;;;5.30;1.40;;;16.80;99.90;;;16.01;100.00;100522.81;4183381;28;20537;-79
2023/08/01 03:02:45;;;;;;;2.55;1.17;;;16.70;99.90;;;16.00;100.00;100528.34;4177321;28;20075;-79
2023/08/01 03:04:47;;;;;;;6.15;1.45;;;16.70;99.90;;;15.99;100.00;100522.19;4164987;28;20030;-80
2023/08/01 03:06:47;;;;;;;4.72;2.13;;;16.60;99.90;;;15.94;100.00;100527.28;4170785;28;20029;-79
2023/08/01 03:08:48;;;;;;;2.88;1.40;;;16.60;99.90;;;15.78;100.00;100524.94;4163249;28;20033;-79
2023/08/01 03:10:50;;;;;;;4.00;1.60;;;16.50;99.90;;;15.69;100.00;100538.56;4171695;28;20029;-80
2023/08/01 03:12:51;;;;;;;7.65;2.33;;;16.40;99.90;;;15.63;100.00;100537.50;4164217;28;20095;-80
2023/08/01 03:14:52;;;;;;;2.65;1.65;;;16.30;99.90;;;15.54;100.00;100535.19;4160286;28;20029;-80
2023/08/01 03:16:52;;;;;;;4.75;1.40;;;16.30;99.90;;;15.47;100.00;100529.84;4163312;28;20022;-80
2023/08/01 03:18:53;;;;;;;4.70;1.60;;;16.20;99.90;;;15.45;100.00;100545.09;4170005;28;20083;-80
2023/08/01 03:20:54;;;;;;;4.07;1.90;;;16.10;99.90;;;15.43;100.00;100542.66;4178931;28;20021;-80
2023/08/01 03:22:55;;;;;;;6.00;2.20;;;16.10;99.90;;;15.41;100.00;100547.31;4171315;28;20029;-79
2023/08/01 03:24:56;;;;;;;4.75;1.55;;;16.10;99.90;;;15.39;100.00;100548.53;4174053;28;20037;-80
2023/08/01 03:26:57;;;;;;;8.70;2.22;;;16.10;99.90;;;15.35;100.00;100550.75;4170470;28;20044;-80
2023/08/01 03:28:58;;;;;;;5.32;1.83;;;16.00;99.90;;;15.30;100.00;100549.66;4170852;28;20057;-80
2023/08/01 03:30:59;;;;;;;4.47;1.83;;;16.00;99.90;;;15.25;100.00;100549.44;4154082;28;20109;-80
2023/08/01 03:33:02;;;;;;;3.97;1.80;;;15.90;99.90;;;15.18;100.00;100537.91;4153691;28;20541;-80
2023/08/01 03:35:06;;;;;;;4.03;1.92;;;15.90;99.90;;;15.13;100.00;100546.47;4152441;28;20029;-80
2023/08/01 03:37:07;;;;;;;4.70;1.90;;;15.80;99.90;;;15.08;100.00;100543.56;4163671;28;20551;-80
2023/08/01 03:39:09;;;;;;;5.63;1.92;;;15.70;99.90;;;15.03;100.00;100551.25;4160805;28;20025;-80
2023/08/01 03:41:10;;;;;;;5.30;2.08;;;15.70;99.90;;;15.01;100.00;100552.47;4173809;28;20021;-80
2023/08/01 03:43:11;;;;;;;5.65;2.78;;;15.70;99.90;;;14.98;100.00;100542.22;4163388;28;20041;-80
2023/08/01 03:45:12;;;;;;;2.92;1.60;;;15.60;99.90;;;14.93;100.00;100554.22;4174362;28;20072;-79
2023/08/01 03:47:13;;;;;;;4.80;2.05;;;15.60;99.90;;;14.90;100.00;100553.81;4170233;28;20040;-80
2023/08/01 03:49:14;;;;;;;4.95;2.78;;;15.60;99.90;;;14.85;100.00;100558.84;4180558;28;20481;-80
2023/08/01 03:51:17;;;;;;;8.27;2.10;;;15.50;99.90;;;14.80;100.00;100556.75;4169366;28;20029;-80
2023/08/01 03:53:18;;;;;;;7.80;2.60;;;15.50;99.90;;;14.77;100.00;100562.44;4163452;28;20025;-80
2023/08/01 03:55:19;;;;;;;3.70;1.90;;;15.40;99.90;;;14.79;100.00;100551.63;4163341;28;20021;-79
2023/08/01 03:57:20;;;;;;;6.47;2.50;;;15.40;99.90;;;14.76;100.00;100546.69;4151594;28;20547;-80
2023/08/01 03:59:21;;;;;;;5.47;2.00;;;15.40;99.90;;;14.79;100.00;100556.94;4174426;28;20060;-79
2023/08/01 04:01:22;;;;;;;7.15;2.60;;;15.40;99.90;;;14.74;100.00;100554.84;4151552;28;20569;-79
2023/08/01 04:03:22;;;;;;;4.10;2.25;;;15.40;99.90;;;14.72;100.00;100558.72;4172970;28;20021;-79
2023/08/01 04:05:24;;;;;;;5.65;2.45;;;15.40;99.90;;;14.68;100.00;100552.13;4167814;28;20477;-79
2023/08/01 04:07:24;;;;;;;6.65;2.72;;;15.40;99.90;;;14.67;100.00;100555.78;4160831;28;20022;-79
2023/08/01 04:09:25;;;;;;;4.13;2.20;;;15.30;99.90;;;14.66;100.00;100556.78;4155406;28;20052;-79
2023/08/01 04:11:27;;;;;;;4.70;2.20;;;15.30;99.90;;;14.61;100.00;100559.16;4154040;28;20486;-79
2023/08/01 04:13:28;;;;;;;7.03;2.63;;;15.30;99.90;;;14.58;100.00;100560.38;4159673;28;20041;-80
2023/08/01 04:15:30;;;;;;;5.35;2.38;;;15.20;99.90;;;14.52;100.00;100557.63;4162608;28;20026;-79
2023/08/01 04:17:30;;;;;;;4.82;2.20;;;15.20;99.90;;;14.50;100.00;100557.00;4157692;28;20022;-79
2023/08/01 04:19:31;;;;;;;6.50;2.28;;;15.20;99.90;;;14.48;100.00;100561.69;4169016;28;20056;-79
2023/08/01 04:21:32;;;;;;;7.57;2.83;;;15.10;99.90;;;14.44;100.00;100558.56;4161915;28;20029;-79
2023/08/01 04:23:33;;;;;;;7.88;3.13;;;15.10;99.90;;;14.41;100.00;100553.63;4169014;28;20041;-79
2023/08/01 04:25:34;;;;;;;6.68;2.67;;;15.00;99.90;;;14.36;100.00;100556.84;4162638;28;20552;-80
2023/08/01 04:27:35;;;;;;;4.63;2.95;;;15.00;99.90;;;14.35;100.00;100557.84;4162807;28;20029;-79
2023/08/01 04:29:35;;;;;;;8.55;2.92;;;15.00;99.90;;;14.34;100.00;100558.84;4174155;28;20076;-80
2023/08/01 04:31:36;;;;;;;7.55;3.15;;;14.90;99.90;;;14.29;100.00;100553.25;4163033;28;20445;-80
2023/08/01 04:33:37;;;;;;;5.05;2.50;;;14.90;99.90;;;14.31;100.00;100561.84;4155612;28;20029;-79
2023/08/01 04:35:38;;;;;;;3.40;2.47;;;14.90;99.90;;;14.28;100.00;100566.69;4162374;28;20021;-79
2023/08/01 04:37:39;;;;;;;7.13;3.75;;;14.90;99.90;;;14.25;100.00;100567.88;4181922;28;20021;-80
2023/08/01 04:39:39;;;;;;;9.30;3.30;;;14.80;99.90;;;14.21;100.00;100568.44;4160797;28;20033;-80
2023/08/01 04:41:40;;;;;;;5.80;2.95;;;14.90;99.90;;;14.17;100.00;100567.16;4179289;28;20071;-79
2023/08/01 04:43:41;;;;;;;9.40;3.00;;;14.80;99.90;;;14.17;100.00;100578.59;4177114;28;20029;-79
2023/08/01 04:45:42;;;;;;;6.35;2.88;;;14.80;99.90;;;14.16;100.00;100576.09;4162286;28;20405;-80
2023/08/01 04:47:43;;;;;;;8.52;4.13;;;14.80;99.90;;;14.13;100.00;100577.31;4151323;28;20030;-79
2023/08/01 04:49:44;;;;;;;7.70;3.70;;;14.80;99.90;;;14.10;100.00;100582.97;4160229;28;20080;-80
2023/08/01 04:51:45;;;;;;;5.70;3.67;;;14.70;99.90;;;14.09;100.00;100584.00;4155078;28;20026;-80
2023/08/01 04:53:46;;;;;;;9.85;3.47;;;14.70;99.90;;;14.06;100.00;100575.56;4166256;28;20458;-80
2023/08/01 04:55:47;;;;;;;13.18;4.15;;;14.70;99.90;;;14.07;100.00;100586.00;4161032;28;20034;-80
2023/08/01 04:57:47;;;;;;;9.48;3.97;;;14.70;99.90;;;14.07;100.00;100585.16;4176403;28;20052;-79
2023/08/01 04:59:48;;;;;;;8.95;4.90;;;14.70;99.90;;;14.05;100.00;100574.75;4179104;28;20028;-79
2023/08/01 05:01:49;;;;;;;9.70;4.55;;;14.60;99.90;;;14.06;100.00;100580.88;4179697;28;20036;-80
2023/08/01 05:03:50;;;;;;;6.57;4.10;;;14.70;99.90;;;14.01;100.00;100578.75;4175015;28;20025;-80
2023/08/01 05:05:51;;;;;;;5.53;3.45;;;14.60;99.90;;;14.03;100.00;100574.13;4159947;28;20033;-79
2023/08/01 05:07:52;;;;;;;8.13;3.92;;;14.70;99.90;;;14.01;100.00;100573.47;4168870;28;20030;-79
2023/08/01 05:09:52;;;;;;;10.40;4.20;;;14.60;99.90;;;14.03;100.00;100574.13;4148324;28;20401;-79
2023/08/01 05:11:53;;;;;;;9.05;3.38;;;14.60;99.90;;;14.02;100.00;100571.63;4165837;28;20028;-79
2023/08/01 05:13:54;;;;;;;10.02;3.78;;;14.60;99.90;;;14.03;100.00;100579.44;4159863;28;20080;-79
2023/08/01 05:15:55;;;;;;;9.82;3.90;;;14.70;99.90;;;14.00;100.00;100573.66;4176324;28;20063;-79
2023/08/01 05:17:56;;;;;;;8.15;4.30;;;14.60;99.90;;;13.99;100.00;100569.34;4170817;28;20044;-79
2023/08/01 05:19:57;;;;;;;8.23;3.65;;;14.60;99.90;;;14.01;100.00;100581.41;4154479;28;20460;-79
2023/08/01 05:21:57;;;;;;;6.03;3.85;;;14.60;99.90;;;13.99;100.00;100580.78;4168690;28;20037;-79
2023/08/01 05:23:58;;;;;;;10.45;4.20;;;14.60;99.90;;;13.98;100.00;100584.44;4162106;28;20017;-80
2023/08/01 05:25:59;;;;;;;10.88;3.90;;;14.60;99.90;;;13.97;100.00;100588.09;4178637;28;20021;-79
2023/08/01 05:28:00;;;;;;;6.82;3.70;;;14.60;99.90;;;13.95;100.00;100587.44;4175218;28;20025;-80
2023/08/01 05:30:01;;;;;;;8.75;3.97;;;14.60;99.90;;;13.99;100.00;100580.78;4163643;28;20588;-80
2023/08/01 05:32:02;;;;;;;12.77;4.05;;;14.60;99.90;;;14.01;100.00;100591.22;4178958;28;20112;-80
2023/08/01 05:34:03;;;;;;;8.70;4.75;;;14.60;99.90;;;14.00;100.00;100590.41;4171809;28;20156;-79
2023/08/01 05:36:05;;;;;;;7.32;3.55;;;14.60;99.90;;;13.99;100.00;100586.09;4163812;28;20030;-79
2023/08/01 05:38:06;;;;;;;6.47;3.60;;;14.60;99.90;;;14.05;100.00;100590.66;4157007;28;20021;-79
2023/08/01 05:40:08;;;;;;;7.28;4.10;;;14.60;99.90;;;14.05;100.00;100593.31;4178196;28;20028;-79
2023/08/01 05:42:09;;;;;;;9.73;4.07;;;14.70;99.90;;;14.08;100.00;100590.31;4153770;28;20457;-80
2023/08/01 05:44:10;;;;;;;8.02;4.20;;;14.70;99.90;;;14.14;100.00;100600.19;4163648;28;20022;-79
2023/08/01 05:46:10;;;;;;;11.18;3.92;;;14.70;99.90;;;14.18;100.00;100603.31;4168245;28;20045;-79
2023/08/01 05:48:13;;;;;;;6.38;3.78;;;14.70;99.90;;;14.20;100.00;100598.63;4156375;28;20389;-79
2023/08/01 05:50:14;;;;;;;7.90;4.25;;;14.80;99.90;;;14.25;100.00;100605.03;4174862;28;20082;-79
2023/08/01 05:52:15;;;;;;;9.13;4.28;;;14.80;99.90;;;14.27;100.00;100605.69;4168617;28;20452;-79
2023/08/01 05:54:16;;;;;;;10.77;4.93;;;14.90;99.90;;;14.33;100.00;100610.28;4180382;28;20100;-79
2023/08/01 05:56:17;;;;;;;10.50;5.15;;;14.90;99.90;;;14.41;100.00;100617.31;4174956;28;20026;-79
2023/08/01 05:58:17;;;;;;;13.05;5.03;;;15.00;99.90;;;14.48;100.00;100604.97;4152249;28;20080;-79
2023/08/01 06:00:21;;;;;;;12.32;4.25;;;15.10;99.90;;;14.59;100.00;100611.63;4169347;28;20500;-79
2023/08/01 06:02:22;;;;;;;10.13;4.87;;;15.20;99.90;;;14.74;100.00;100607.94;4169996;28;20025;-79
2023/08/01 06:04:22;;;;;;;8.68;4.57;;;15.30;99.90;;;14.91;100.00;100608.53;4163004;28;20275;-80
2023/08/01 06:06:23;;;;;;;11.98;4.80;;;15.40;99.90;;;15.09;100.00;100622.22;4155082;28;20022;-80
2023/08/01 06:08:25;;;;;;;11.73;4.60;;;15.60;99.90;;;15.24;100.00;100620.34;4170998;28;20029;-80
2023/08/01 06:10:26;;;;;;;7.20;4.32;;;15.70;99.90;;;15.38;100.00;100613.34;4153308;28;20409;-80
2023/08/01 06:12:26;;;;;;;9.90;3.90;;;15.90;99.90;;;15.53;100.00;100623.94;4162200;28;20113;-80
2023/08/01 06:14:27;;;;;;;17.60;4.47;;;16.10;99.90;;;15.64;100.00;100621.59;4160869;28;20520;-80
2023/08/01 06:16:28;;;;;;;9.50;3.97;;;16.20;99.90;;;15.75;100.00;100623.72;4179498;28;20025;-80
2023/08/01 06:18:29;;;;;;;13.73;3.75;;;16.30;99.90;;;15.90;100.00;100631.59;4181191;28;20026;-79
2023/08/01 06:20:30;;;;;;;7.47;3.80;;;16.40;99.90;;;16.06;100.00;100631.34;4178390;28;20021;-79
2023/08/01 06:22:31;;;;;;;6.78;3.85;;;16.60;99.90;;;16.16;100.00;100637.13;4182364;28;20032;-79
2023/08/01 06:24:32;;;;;;;6.78;3.10;;;16.70;99.90;;;16.21;100.00;100640.03;4173206;28;20055;-79
2023/08/01 06:26:33;;;;;;;6.55;3.95;;;16.80;99.90;;;16.37;100.00;100639.69;4170707;28;20481;-79
2023/08/01 06:28:33;;;;;;;7.22;3.40;;;16.90;99.90;;;16.48;100.00;100647.16;4161154;28;20417;-79
2023/08/01 06:30:34;;;;;;;11.68;3.67;;;17.00;99.90;;;16.51;100.00;100645.94;4160398;28;20038;-79
2023/08/01 06:32:35;;;;;;;8.05;3.80;;;17.10;99.90;;;16.64;100.00;100646.03;4157176;28;20030;-80
2023/08/01 06:34:36;;;;;;;10.50;4.65;;;17.10;99.90;;;16.65;100.00;100641.53;4166240;28;20052;-79
2023/08/01 06:36:37;;;;;;;6.97;3.28;;;17.20;99.90;;;16.79;100.00;100643.22;4155588;28;20037;-79
2023/08/01 06:38:38;;;;;;;10.95;3.03;;;17.30;99.90;;;16.94;100.00;100641.22;4162716;28;20460;-79
2023/08/01 06:40:38;;;;;;;7.57;3.22;;;17.40;99.90;;;17.11;100.00;100637.22;4165354;28;20072;-79
2023/08/01 06:42:41;;;;;;;7.05;3.05;;;17.60;99.90;;;17.23;100.00;100648.94;4166118;28;20034;-79
2023/08/01 06:44:41;;;;;;;11.43;3.90;;;17.70;99.90;;;17.27;100.00;100628.81;4162318;28;20034;-80
2023/08/01 06:46:42;;;;;;;7.78;3.50;;;17.80;99.90;;;17.50;100.00;100639.13;4158332;28;20393;-79
2023/08/01 06:48:43;;;;;;;11.45;3.70;;;17.90;99.90;;;17.66;100.00;100639.59;4163567;28;20021;-80
2023/08/01 06:50:44;;;;;;;11.93;4.03;;;18.00;99.90;;;17.64;100.00;100644.31;4164953;28;20058;-79
2023/08/01 06:52:45;;;;;;;12.20;5.18;;;18.10;99.90;;;17.68;100.00;100647.41;4163471;28;20037;-79
2023/08/01 06:54:46;;;;;;;10.00;4.13;;;18.20;99.90;;;17.75;100.00;100642.88;4157593;28;20033;-79
2023/08/01 06:56:49;;;;;;;9.35;3.63;;;18.20;99.90;;;17.85;100.00;100639.78;4156629;28;20521;-80
2023/08/01 06:58:50;;;;;;;6.63;3.33;;;18.30;99.90;;;17.88;100.00;100650.06;4156677;28;20014;-80
2023/08/01 07:00:51;;;;;;;11.05;3.85;;;18.30;99.90;;;17.84;100.00;100648.81;4163047;28;20041;-79
2023/08/01 07:02:52;;;;;;;9.43;3.47;;;18.40;99.90;;;17.93;100.00;100659.09;4162934;28;20041;-79
2023/08/01 07:04:53;;;;;;;9.77;3.25;;;18.40;99.90;;;17.79;100.00;100640.63;4160090;28;20029;-79
2023/08/01 07:06:54;;;;;;;9.30;3.55;;;18.40;99.90;;;17.75;100.00;100644.72;4155875;28;20048;-79
2023/08/01 07:08:57;;;;;;;8.15;3.80;;;18.40;99.90;;;17.77;100.00;100651.47;4152598;28;20084;-79
2023/08/01 07:10:59;;;;;;;8.05;4.22;;;18.40;99.90;;;17.95;100.00;100650.88;4156901;28;20037;-79
2023/08/01 07:13:03;;;;;;;10.77;3.50;;;18.40;99.90;;;17.96;100.00;100653.34;4165619;28;20099;-79
2023/08/01 07:15:04;;;;;;;;;;;18.50;99.90;;;17.85;100.00;100650.47;4154148;28;20026;-79
2023/08/01 07:17:05;;;;;;;10.98;3.58;;;18.50;99.90;;;17.91;100.00;100661.16;4150395;28;20024;-79
2023/08/01 07:19:06;;;;;;;11.55;4.07;;;18.60;99.90;;;17.98;100.00;100658.47;4159657;28;20037;-79
2023/08/01 07:21:07;;;;;;;12.35;4.78;;;18.60;99.90;;;17.95;100.00;100661.56;4165465;28;20109;-79
2023/08/01 07:23:08;;;;;;;9.98;2.97;;;18.60;99.90;;;17.96;100.00;100663.19;4152466;28;20505;-79
2023/08/01 07:25:09;;;;;;;11.23;3.50;;;18.60;99.90;;;18.05;100.00;100661.94;4165187;28;20024;-79
2023/08/01 07:27:11;;;;;;;15.63;3.83;;;18.70;99.90;;;18.14;100.00;100658.03;4149240;28;20022;-79
2023/08/01 07:29:15;;;;;;;9.43;3.80;;;18.70;99.90;;;18.11;100.00;100672.63;4170289;28;20039;-79
2023/08/01 07:31:16;;;;;;;11.70;3.42;;;18.70;99.90;;;18.18;100.00;100681.47;4171179;28;20026;-80
2023/08/01 07:33:17;;;;;;;13.38;4.28;;;18.70;99.90;;;18.19;100.00;100683.09;4152037;28;21315;-80
2023/08/01 07:35:18;;;;;;;13.60;4.45;;;18.80;99.90;;;18.11;100.00;100682.47;4183461;28;20028;-80
2023/08/01 07:37:19;;;;;;;10.23;4.65;;;18.70;99.90;;;18.13;100.00;100683.91;4172697;28;20032;-79
2023/08/01 07:39:20;;;;;;;11.57;4.47;;;18.60;99.90;;;17.97;100.00;100673.66;4170978;28;20539;-79
2023/08/01 07:41:20;;;;;;;9.60;3.78;;;18.60;99.90;;;17.90;100.00;100666.69;4167419;28;20556;-79
2023/08/01 07:43:23;;;;;;;13.05;3.92;;;18.50;99.90;;;17.95;100.00;100677.56;4179840;28;20029;-80
2023/08/01 07:45:24;;;;;;;11.90;4.05;;;18.60;99.90;;;17.89;100.00;100671.19;4151928;28;20081;-79
2023/08/01 07:47:25;;;;;;;10.63;4.25;;;18.60;99.90;;;17.96;100.00;100679.19;4159140;28;20029;-79
2023/08/01 07:49:26;;;;;;;11.48;3.80;;;18.60;99.90;;;18.12;100.00;100673.47;4170719;28;20032;-79
2023/08/01 07:51:27;;;;;;;14.32;4.40;;;18.60;99.90;;;18.39;100.00;100675.06;4158442;28;20029;-79
2023/08/01 07:53:28;;;;;;;6.80;3.30;;;18.80;99.90;;;18.49;100.00;100667.47;4147165;28;20500;-80
2023/08/01 07:55:29;;;;;;;17.75;4.32;;;18.90;99.90;;;18.52;100.00;100675.06;4181969;28;20033;-80
2023/08/01 07:57:29;;;;;;;8.18;3.75;;;19.00;99.90;;;18.44;100.00;100669.91;4183210;28;20071;-79
2023/08/01 07:59:30;;;;;;;12.35;4.18;;;19.00;99.90;;;18.34;100.00;100672.19;4184359;28;20017;-80
2023/08/01 08:01:31;;;;;;;11.27;3.78;;;19.00;99.90;;;18.46;100.00;100669.69;4167834;28;20052;-80
2023/08/01 08:03:32;;;;;;;9.85;3.28;;;19.10;99.90;;;18.76;100.00;100663.69;4170064;28;20030;-79
2023/08/01 08:05:34;;;;;;;7.10;3.20;;;19.30;99.90;;;19.16;100.00;100663.50;4159634;28;20033;-79
2023/08/01 08:07:37;;;;;;;12.23;4.10;;;19.50;99.90;;;19.23;100.00;100665.09;4159291;28;20437;-79
2023/08/01 08:09:38;;;;;;;13.23;3.88;;;19.70;99.90;;;19.05;100.00;100658.84;4158199;28;20112;-80
2023/08/01 08:11:38;;;;;;;8.45;3.67;;;19.70;99.90;;;19.14;100.00;100666.41;4181800;28;20029;-79
2023/08/01 08:13:39;;;;;;;11.48;3.50;;;19.70;99.90;;;19.20;100.00;100662.06;4167926;28;20025;-80
2023/08/01 08:15:40;;;;;;;9.25;3.47;;;19.80;99.90;;;19.23;100.00;100656.28;4179082;28;20029;-80
2023/08/01 08:17:41;;;;;;;10.43;4.13;;;20.00;99.90;;;19.46;100.00;100655.75;4183771;28;20029;-79